createdAt,value
2019-02-22T00:00:03.830Z,0
2019-02-22T00:01:03.347Z,0
2019-02-22T00:02:03.941Z,0
2019-02-22T00:03:03.202Z,0
2019-02-22T00:04:03.372Z,0
2019-02-22T00:05:03.736Z,1.1
2019-02-22T00:06:03.388Z,1.1
2019-02-22T00:07:03.065Z,1.1
2019-02-22T00:08:03.384Z,1.1
2019-02-22T00:09:03.123Z,1.1
2019-02-22T00:10:03.231Z,1.1
2019-02-22T00:11:03.833Z,1.1
2019-02-22T00:12:03.891Z,1.1
2019-02-22T00:13:03.819Z,1.1
2019-02-22T00:14:03.381Z,1.1
2019-02-22T00:15:03.651Z,1.1
2019-02-22T00:16:03.033Z,1.1
2019-02-22T00:17:03.505Z,1.1
2019-02-22T00:18:03.012Z,1.1
2019-02-22T00:19:03.374Z,2.5
2019-02-22T00:20:03.046Z,1.1
2019-02-22T00:21:03.414Z,0
2019-02-22T00:22:03.039Z,0
2019-02-22T00:23:04.026Z,0
2019-02-22T00:24:03.032Z,0
2019-02-22T00:25:03.780Z,2.5
2019-02-22T00:26:03.189Z,2.5
2019-02-22T00:27:03.728Z,2.5
2019-02-22T00:28:03.224Z,2.5
2019-02-22T00:29:03.745Z,2.5
2019-02-22T00:30:03.377Z,3.6
2019-02-22T00:31:03.372Z,2.5
2019-02-22T00:32:03.065Z,2.5
2019-02-22T00:33:03.363Z,2.5
2019-02-22T00:34:03.880Z,2.5
2019-02-22T00:35:03.630Z,2.5
2019-02-22T00:36:03.481Z,3.6
2019-02-22T00:37:04.564Z,3.6
2019-02-22T00:38:03.452Z,2.5
2019-02-22T00:39:03.004Z,1.1
2019-02-22T00:40:03.430Z,2.5
2019-02-22T00:41:03.924Z,2.5
2019-02-22T00:42:03.219Z,1.1
2019-02-22T00:43:02.938Z,0
2019-02-22T00:44:03.583Z,2.5
2019-02-22T00:45:03.181Z,2.5
2019-02-22T00:46:03.378Z,3.6
2019-02-22T00:47:03.162Z,2.5
2019-02-22T00:48:03.503Z,2.5
2019-02-22T00:49:03.798Z,2.5
2019-02-22T00:50:03.265Z,3.6
2019-02-22T00:51:04.066Z,2.5
2019-02-22T00:52:03.373Z,1.1
2019-02-22T00:53:03.858Z,1.1
2019-02-22T00:54:03.370Z,1.1
2019-02-22T00:55:03.862Z,1.1
2019-02-22T00:56:03.343Z,1.1
2019-02-22T00:57:03.122Z,1.1
2019-02-22T00:58:03.732Z,0
2019-02-22T00:59:03.148Z,2.5
2019-02-22T01:00:04.473Z,1.1
2019-02-22T01:01:03.413Z,2.5
2019-02-22T01:02:03.106Z,2.5
2019-02-22T01:03:03.455Z,2.5
2019-02-22T01:04:02.874Z,2.5
2019-02-22T01:05:03.856Z,2.5
2019-02-22T01:06:02.976Z,2.5
2019-02-22T01:07:03.563Z,2.5
2019-02-22T01:08:03.419Z,0
2019-02-22T01:09:03.425Z,0
2019-02-22T01:10:03.148Z,1.1
2019-02-22T01:11:03.618Z,0
2019-02-22T01:12:03.204Z,0
2019-02-22T01:13:03.482Z,1.1
2019-02-22T01:14:02.936Z,2.5
2019-02-22T01:15:03.053Z,1.1
2019-02-22T01:16:02.895Z,1.1
2019-02-22T01:17:03.132Z,2.5
2019-02-22T01:18:03.838Z,3.6
2019-02-22T01:19:03.171Z,3.6
2019-02-22T01:20:03.933Z,2.5
2019-02-22T01:21:03.253Z,2.5
2019-02-22T01:22:03.534Z,2.5
2019-02-22T01:23:03.464Z,2.5
2019-02-22T01:24:03.297Z,3.6
2019-02-22T01:25:03.608Z,2.5
2019-02-22T01:26:03.249Z,2.5
2019-02-22T01:27:03.788Z,2.5
2019-02-22T01:28:03.312Z,3.6
2019-02-22T01:29:03.650Z,3.6
2019-02-22T01:30:03.512Z,3.6
2019-02-22T01:31:03.566Z,5
2019-02-22T01:32:03.455Z,3.6
2019-02-22T01:33:03.933Z,6.1
2019-02-22T01:34:03.522Z,6.1
2019-02-22T01:35:03.254Z,6.1
2019-02-22T01:36:03.687Z,5
2019-02-22T01:37:03.051Z,6.1
2019-02-22T01:38:03.426Z,8.6
2019-02-22T01:39:03.625Z,8.6
2019-02-22T01:40:03.845Z,8.6
2019-02-22T01:41:02.917Z,7.2
2019-02-22T01:42:03.637Z,7.2
2019-02-22T01:43:03.594Z,8.6
2019-02-22T01:44:03.467Z,7.2
2019-02-22T01:45:03.763Z,6.1
2019-02-22T01:46:03.312Z,5
2019-02-22T01:47:03.676Z,5
2019-02-22T01:48:03.549Z,6.1
2019-02-22T01:49:03.863Z,6.1
2019-02-22T01:50:03.379Z,8.6
2019-02-22T01:51:03.192Z,8.6
2019-02-22T01:52:03.359Z,6.1
2019-02-22T01:53:03.595Z,6.1
2019-02-22T01:54:02.768Z,6.1
2019-02-22T01:55:03.498Z,9.7
2019-02-22T01:56:04.002Z,7.2
2019-02-22T01:57:03.320Z,6.1
2019-02-22T01:58:03.214Z,6.1
2019-02-22T01:59:03.600Z,5
2019-02-22T02:00:03.279Z,5
2019-02-22T02:01:04.069Z,8.6
2019-02-22T02:02:03.417Z,6.1
2019-02-22T02:03:03.701Z,5
2019-02-22T02:04:03.048Z,3.6
2019-02-22T02:05:03.502Z,3.6
2019-02-22T02:06:03.538Z,3.6
2019-02-22T02:07:02.787Z,5
2019-02-22T02:08:03.318Z,5
2019-02-22T02:09:02.899Z,5
2019-02-22T02:10:03.266Z,3.6
2019-02-22T02:11:02.789Z,3.6
2019-02-22T02:12:03.072Z,5
2019-02-22T02:13:03.444Z,6.1
2019-02-22T02:14:03.152Z,6.1
2019-02-22T02:15:03.570Z,6.1
2019-02-22T02:16:03.839Z,5
2019-02-22T02:17:03.623Z,5
2019-02-22T02:18:03.204Z,5
2019-02-22T02:19:02.930Z,5
2019-02-22T02:20:03.433Z,5
2019-02-22T02:21:03.721Z,5
2019-02-22T02:22:03.052Z,5
2019-02-22T02:23:03.804Z,6.1
2019-02-22T02:24:03.298Z,9.7
2019-02-22T02:25:03.675Z,9.7
2019-02-22T02:26:03.091Z,11.2
2019-02-22T02:27:03.246Z,9.7
2019-02-22T02:28:03.591Z,11.2
2019-02-22T02:29:03.346Z,9.7
2019-02-22T02:30:03.912Z,11.2
2019-02-22T02:31:03.442Z,9.7
2019-02-22T02:32:02.941Z,9.7
2019-02-22T02:33:03.293Z,9.7
2019-02-22T02:34:03.091Z,9.7
2019-02-22T02:35:03.372Z,11.2
2019-02-22T02:36:03.737Z,11.2
2019-02-22T02:37:03.121Z,13.3
2019-02-22T02:38:03.931Z,12.2
2019-02-22T02:39:03.096Z,11.2
2019-02-22T02:40:04.424Z,9.7
2019-02-22T02:41:11.959Z,7.2
2019-02-22T02:42:03.566Z,7.2
2019-02-22T02:43:03.579Z,6.1
2019-02-22T02:44:03.678Z,9.7
2019-02-22T02:45:03.120Z,9.7
2019-02-22T02:46:03.917Z,8.6
2019-02-22T02:47:03.058Z,7.2
2019-02-22T02:48:03.243Z,7.2
2019-02-22T02:49:03.803Z,9.7
2019-02-22T02:50:03.729Z,9.7
2019-02-22T02:51:02.828Z,8.6
2019-02-22T02:52:03.366Z,8.6
2019-02-22T02:53:04.036Z,7.2
2019-02-22T02:54:03.098Z,7.2
2019-02-22T02:55:03.765Z,11.2
2019-02-22T02:56:03.302Z,8.6
2019-02-22T02:57:03.947Z,7.2
2019-02-22T02:58:03.520Z,7.2
2019-02-22T02:59:03.783Z,8.6
2019-02-22T03:00:03.427Z,6.1
2019-02-22T03:01:03.979Z,8.6
2019-02-22T03:02:02.978Z,8.6
2019-02-22T03:03:03.383Z,8.6
2019-02-22T03:04:02.999Z,8.6
2019-02-22T03:05:03.720Z,8.6
2019-02-22T03:06:03.408Z,8.6
2019-02-22T03:07:03.912Z,8.6
2019-02-22T03:08:03.247Z,11.2
2019-02-22T03:09:03.924Z,7.2
2019-02-22T03:10:03.315Z,8.6
2019-02-22T03:11:03.880Z,9.7
2019-02-22T03:12:02.949Z,11.2
2019-02-22T03:13:03.570Z,7.2
2019-02-22T03:14:03.313Z,8.6
2019-02-22T03:15:03.731Z,11.2
2019-02-22T03:16:03.598Z,9.7
2019-02-22T03:17:02.955Z,14.8
2019-02-22T03:18:03.518Z,9.7
2019-02-22T03:19:03.865Z,9.7
2019-02-22T03:20:03.628Z,11.2
2019-02-22T03:21:03.116Z,11.2
2019-02-22T03:22:03.848Z,11.2
2019-02-22T03:23:03.024Z,9.7
2019-02-22T03:24:03.830Z,8.6
2019-02-22T03:25:03.410Z,13.3
2019-02-22T03:26:03.450Z,9.7
2019-02-22T03:27:03.609Z,8.6
2019-02-22T03:28:02.886Z,9.7
2019-02-22T03:29:02.975Z,9.7
2019-02-22T03:30:03.797Z,8.6
2019-02-22T03:31:03.061Z,9.7
2019-02-22T03:32:03.872Z,9.7
2019-02-22T03:33:03.378Z,9.7
2019-02-22T03:34:04.039Z,11.2
2019-02-22T03:35:03.678Z,11.2
2019-02-22T03:36:03.031Z,12.2
2019-02-22T03:37:03.626Z,11.2
2019-02-22T03:38:02.870Z,12.2
2019-02-22T03:39:03.630Z,11.2
2019-02-22T03:40:03.062Z,12.2
2019-02-22T03:41:03.400Z,9.7
2019-02-22T03:42:03.744Z,9.7
2019-02-22T03:43:03.187Z,12.2
2019-02-22T03:44:03.632Z,13.3
2019-02-22T03:45:02.933Z,11.2
2019-02-22T03:46:03.087Z,12.2
2019-02-22T03:47:03.204Z,12.2
2019-02-22T03:48:03.612Z,14.8
2019-02-22T03:49:03.186Z,14.8
2019-02-22T03:50:03.684Z,12.2
2019-02-22T03:51:03.807Z,12.2
2019-02-22T03:52:03.650Z,14.8
2019-02-22T03:53:03.259Z,12.2
2019-02-22T03:54:03.439Z,12.2
2019-02-22T03:55:03.070Z,14.8
2019-02-22T03:56:03.831Z,12.2
2019-02-22T03:57:03.125Z,14.8
2019-02-22T03:58:03.843Z,13.3
2019-02-22T03:59:03.135Z,13.3
2019-02-22T04:00:03.817Z,13.3
2019-02-22T04:01:02.855Z,11.2
2019-02-22T04:02:03.616Z,11.2
2019-02-22T04:03:03.749Z,14.8
2019-02-22T04:04:03.425Z,12.2
2019-02-22T04:05:03.656Z,12.2
2019-02-22T04:06:03.576Z,12.2
2019-02-22T04:07:03.616Z,12.2
2019-02-22T04:08:03.010Z,11.2
2019-02-22T04:09:03.233Z,13.3
2019-02-22T04:10:02.887Z,15.8
2019-02-22T04:11:03.202Z,15.8
2019-02-22T04:12:03.879Z,12.2
2019-02-22T04:13:03.134Z,13.3
2019-02-22T04:14:03.930Z,15.8
2019-02-22T04:15:03.083Z,11.2
2019-02-22T04:16:03.561Z,14.8
2019-02-22T04:17:02.982Z,15.8
2019-02-22T04:18:03.785Z,14.8
2019-02-22T04:19:03.646Z,20.9
2019-02-22T04:20:03.251Z,19.4
2019-02-22T04:21:03.496Z,14.8
2019-02-22T04:22:03.238Z,14.8
2019-02-22T04:23:03.896Z,12.2
2019-02-22T04:24:03.117Z,12.2
2019-02-22T04:25:04.031Z,14.8
2019-02-22T04:26:03.355Z,14.8
2019-02-22T04:27:03.803Z,12.2
2019-02-22T04:28:03.172Z,12.2
2019-02-22T04:29:03.547Z,12.2
2019-02-22T04:30:03.092Z,14.8
2019-02-22T04:31:03.584Z,14.8
2019-02-22T04:32:03.173Z,15.8
2019-02-22T04:33:03.681Z,14.8
2019-02-22T04:34:03.731Z,12.2
2019-02-22T04:35:03.608Z,13.3
2019-02-22T04:36:03.122Z,11.2
2019-02-22T04:37:03.752Z,11.2
2019-02-22T04:38:03.574Z,12.2
2019-02-22T04:39:03.804Z,15.8
2019-02-22T04:40:03.492Z,11.2
2019-02-22T04:41:04.027Z,11.2
2019-02-22T04:42:03.122Z,11.2
2019-02-22T04:43:03.861Z,12.2
2019-02-22T04:44:03.323Z,12.2
2019-02-22T04:45:03.850Z,9.7
2019-02-22T04:46:03.251Z,11.2
2019-02-22T04:47:03.466Z,13.3
2019-02-22T04:48:03.064Z,12.2
2019-02-22T04:49:03.739Z,11.2
2019-02-22T04:50:03.187Z,11.2
2019-02-22T04:51:03.490Z,9.7
2019-02-22T04:52:02.765Z,13.3
2019-02-22T04:53:03.329Z,13.3
2019-02-22T04:54:03.891Z,11.2
2019-02-22T04:55:03.440Z,11.2
2019-02-22T04:56:02.905Z,14.8
2019-02-22T04:57:03.309Z,14.8
2019-02-22T04:58:03.651Z,11.2
2019-02-22T04:59:04.138Z,12.2
2019-02-22T05:00:03.289Z,11.2
2019-02-22T05:01:03.011Z,11.2
2019-02-22T05:02:03.612Z,11.2
2019-02-22T05:03:03.858Z,11.2
2019-02-22T05:04:03.389Z,11.2
2019-02-22T05:05:03.804Z,11.2
2019-02-22T05:06:03.267Z,11.2
2019-02-22T05:07:03.808Z,11.2
2019-02-22T05:08:03.432Z,9.7
2019-02-22T05:09:03.990Z,12.2
2019-02-22T05:10:03.282Z,8.6
2019-02-22T05:11:03.694Z,8.6
2019-02-22T05:12:11.671Z,7.2
2019-02-22T05:13:03.492Z,9.7
2019-02-22T05:14:03.686Z,9.7
2019-02-22T05:15:13.396Z,11.2
2019-02-22T05:16:02.942Z,7.2
2019-02-22T05:17:03.622Z,8.6
2019-02-22T05:18:03.939Z,9.7
2019-02-22T05:19:03.610Z,9.7
2019-02-22T05:20:03.835Z,8.6
2019-02-22T05:21:03.334Z,11.2
2019-02-22T05:22:03.476Z,9.7
2019-02-22T05:23:07.993Z,9.7
2019-02-22T05:24:03.762Z,9.7
2019-02-22T05:25:03.443Z,11.2
2019-02-22T05:26:03.931Z,9.7
2019-02-22T05:27:03.788Z,7.2
2019-02-22T05:28:03.083Z,8.6
2019-02-22T05:29:03.436Z,8.6
2019-02-22T05:30:02.962Z,9.7
2019-02-22T05:31:03.343Z,11.2
2019-02-22T05:32:02.742Z,8.6
2019-02-22T05:33:03.715Z,8.6
2019-02-22T05:34:03.098Z,8.6
2019-02-22T05:35:03.838Z,8.6
2019-02-22T05:36:03.190Z,8.6
2019-02-22T05:37:03.437Z,8.6
2019-02-22T05:38:03.068Z,8.6
2019-02-22T05:39:03.492Z,8.6
2019-02-22T05:40:03.458Z,7.2
2019-02-22T05:41:03.485Z,8.6
2019-02-22T05:42:03.054Z,9.7
2019-02-22T05:43:03.695Z,7.2
2019-02-22T05:44:03.343Z,8.6
2019-02-22T05:45:03.676Z,7.2
2019-02-22T05:46:03.478Z,8.6
2019-02-22T05:47:03.555Z,9.7
2019-02-22T05:48:03.252Z,12.2
2019-02-22T05:49:03.445Z,9.7
2019-02-22T05:50:03.543Z,8.6
2019-02-22T05:51:03.644Z,8.6
2019-02-22T05:52:03.006Z,8.6
2019-02-22T05:53:04.203Z,8.6
2019-02-22T05:54:03.543Z,8.6
2019-02-22T05:55:03.231Z,7.2
2019-02-22T05:56:03.776Z,7.2
2019-02-22T05:57:03.239Z,8.6
2019-02-22T05:58:03.792Z,8.6
2019-02-22T05:59:03.100Z,8.6
2019-02-22T06:00:03.792Z,8.6
2019-02-22T06:01:02.748Z,7.2
2019-02-22T06:02:03.265Z,8.6
2019-02-22T06:03:03.186Z,8.6
2019-02-22T06:04:03.645Z,8.6
2019-02-22T06:05:02.923Z,11.2
2019-02-22T06:06:03.385Z,8.6
2019-02-22T06:07:03.209Z,8.6
2019-02-22T06:08:03.449Z,8.6
2019-02-22T06:09:03.848Z,8.6
2019-02-22T06:10:03.111Z,7.2
2019-02-22T06:11:02.987Z,7.2
2019-02-22T06:12:03.723Z,7.2
2019-02-22T06:13:02.991Z,6.1
2019-02-22T06:14:03.697Z,6.1
2019-02-22T06:15:03.384Z,7.2
2019-02-22T06:16:03.618Z,7.2
2019-02-22T06:17:15.312Z,7.2
2019-02-22T06:18:04.232Z,7.2
2019-02-22T06:19:03.024Z,6.1
2019-02-22T06:20:03.894Z,7.2
2019-02-22T06:21:03.731Z,6.1
2019-02-22T06:22:03.180Z,6.1
2019-02-22T06:23:02.986Z,7.2
2019-02-22T06:24:03.944Z,7.2
2019-02-22T06:25:03.196Z,7.2
2019-02-22T06:26:03.715Z,7.2
2019-02-22T06:27:03.828Z,7.2
2019-02-22T06:28:03.737Z,7.2
2019-02-22T06:29:02.893Z,8.6
2019-02-22T06:30:04.183Z,6.1
2019-02-22T06:31:03.413Z,6.1
2019-02-22T06:32:02.798Z,8.6
2019-02-22T06:33:03.480Z,7.2
2019-02-22T06:34:03.042Z,5
2019-02-22T06:35:03.548Z,6.1
2019-02-22T06:36:03.183Z,7.2
2019-02-22T06:37:03.541Z,6.1
2019-02-22T06:38:03.158Z,6.1
2019-02-22T06:39:03.057Z,6.1
2019-02-22T06:40:03.892Z,6.1
2019-02-22T06:41:03.127Z,7.2
2019-02-22T06:42:03.817Z,8.6
2019-02-22T06:43:03.786Z,7.2
2019-02-22T06:44:03.148Z,6.1
2019-02-22T06:45:03.134Z,7.2
2019-02-22T06:46:03.207Z,6.1
2019-02-22T06:47:03.199Z,6.1
2019-02-22T06:48:03.355Z,6.1
2019-02-22T06:49:03.285Z,5
2019-02-22T06:50:03.153Z,5
2019-02-22T06:51:03.008Z,6.1
2019-02-22T06:52:03.467Z,6.1
2019-02-22T06:53:03.042Z,5
2019-02-22T06:54:03.707Z,7.2
2019-02-22T06:55:03.406Z,6.1
2019-02-22T06:56:03.447Z,7.2
2019-02-22T06:57:03.012Z,6.1
2019-02-22T06:58:03.592Z,6.1
2019-02-22T06:59:03.765Z,6.1
2019-02-22T07:00:03.279Z,6.1
2019-02-22T07:01:03.569Z,7.2
2019-02-22T07:02:03.822Z,7.2
2019-02-22T07:03:03.379Z,7.2
2019-02-22T07:04:03.995Z,7.2
2019-02-22T07:05:03.134Z,7.2
2019-02-22T07:06:05.952Z,7.2
2019-02-22T07:07:03.353Z,7.2
2019-02-22T07:08:03.347Z,7.2
2019-02-22T07:09:03.558Z,6.1
2019-02-22T07:10:02.982Z,6.1
2019-02-22T07:11:03.635Z,7.2
2019-02-22T07:12:02.917Z,8.6
2019-02-22T07:13:03.364Z,5
2019-02-22T07:14:03.072Z,5
2019-02-22T07:15:03.094Z,7.2
2019-02-22T07:16:03.510Z,8.6
2019-02-22T07:17:03.634Z,6.1
2019-02-22T07:18:03.081Z,7.2
2019-02-22T07:19:04.065Z,6.1
2019-02-22T07:20:03.110Z,6.1
2019-02-22T07:21:03.557Z,7.2
2019-02-22T07:22:02.942Z,5
2019-02-22T07:23:03.506Z,5
2019-02-22T07:24:04.085Z,6.1
2019-02-22T07:25:02.949Z,5
2019-02-22T07:26:03.898Z,6.1
2019-02-22T07:27:03.383Z,7.2
2019-02-22T07:28:03.753Z,7.2
2019-02-22T07:29:03.466Z,7.2
2019-02-22T07:30:03.686Z,8.6
2019-02-22T07:31:03.005Z,8.6
2019-02-22T07:32:39.836Z,7.2
2019-02-22T07:33:02.989Z,9.7
2019-02-22T07:34:03.125Z,6.1
2019-02-22T07:35:03.474Z,6.1
2019-02-22T07:36:03.562Z,6.1
2019-02-22T07:37:03.374Z,7.2
2019-02-22T07:38:03.718Z,8.6
2019-02-22T07:39:03.465Z,8.6
2019-02-22T07:40:03.783Z,8.6
2019-02-22T07:41:03.112Z,8.6
2019-02-22T07:42:03.179Z,8.6
2019-02-22T07:43:08.698Z,8.6
2019-02-22T07:44:03.360Z,7.2
2019-02-22T07:45:03.193Z,9.7
2019-02-22T07:46:03.601Z,9.7
2019-02-22T07:47:03.790Z,7.2
2019-02-22T07:48:03.526Z,9.7
2019-02-22T07:49:02.859Z,11.2
2019-02-22T07:50:03.554Z,8.6
2019-02-22T07:51:03.108Z,8.6
2019-02-22T07:52:03.717Z,9.7
2019-02-22T07:53:03.115Z,11.2
2019-02-22T07:54:03.535Z,9.7
2019-02-22T07:55:03.179Z,9.7
2019-02-22T07:56:03.398Z,8.6
2019-02-22T07:57:03.205Z,8.6
2019-02-22T07:58:03.232Z,9.7
2019-02-22T07:59:03.909Z,11.2
2019-02-22T08:00:03.114Z,9.7
2019-02-22T08:01:03.922Z,9.7
2019-02-22T08:02:03.590Z,11.2
2019-02-22T08:03:03.196Z,11.2
2019-02-22T08:04:03.565Z,12.2
2019-02-22T08:05:02.875Z,9.7
2019-02-22T08:06:03.773Z,11.2
2019-02-22T08:07:03.098Z,11.2
2019-02-22T08:08:03.663Z,8.6
2019-02-22T08:09:03.368Z,11.2
2019-02-22T08:10:03.705Z,9.7
2019-02-22T08:11:03.248Z,9.7
2019-02-22T08:12:03.828Z,12.2
2019-02-22T08:13:02.723Z,11.2
2019-02-22T08:14:03.471Z,8.6
2019-02-22T08:15:03.903Z,9.7
2019-02-22T08:16:03.178Z,11.2
2019-02-22T08:17:03.837Z,9.7
2019-02-22T08:18:03.637Z,9.7
2019-02-22T08:19:03.511Z,8.6
2019-02-22T08:20:03.791Z,8.6
2019-02-22T08:21:03.466Z,8.6
2019-02-22T08:22:03.989Z,9.7
2019-02-22T08:23:03.127Z,9.7
2019-02-22T08:24:03.952Z,9.7
2019-02-22T08:25:03.040Z,8.6
2019-02-22T08:26:03.526Z,9.7
2019-02-22T08:27:03.803Z,11.2
2019-02-22T08:28:03.778Z,11.2
2019-02-22T08:29:03.591Z,11.2
2019-02-22T08:30:03.833Z,12.2
2019-02-22T08:31:03.257Z,12.2
2019-02-22T08:32:04.003Z,12.2
2019-02-22T08:33:03.431Z,12.2
2019-02-22T08:34:03.524Z,12.2
2019-02-22T08:35:03.253Z,12.2
2019-02-22T08:36:03.302Z,9.7
2019-02-22T08:37:03.627Z,11.2
2019-02-22T08:38:03.108Z,11.2
2019-02-22T08:39:03.692Z,12.2
2019-02-22T08:40:03.220Z,11.2
2019-02-22T08:41:03.838Z,13.3
2019-02-22T08:42:03.356Z,13.3
2019-02-22T08:43:03.860Z,13.3
2019-02-22T08:44:03.405Z,13.3
2019-02-22T08:45:03.445Z,13.3
2019-02-22T08:46:03.880Z,12.2
2019-02-22T08:47:03.767Z,12.2
2019-02-22T08:48:03.166Z,12.2
2019-02-22T08:49:03.239Z,12.2
2019-02-22T08:50:03.362Z,9.7
2019-02-22T08:51:03.450Z,9.7
2019-02-22T08:52:03.412Z,9.7
2019-02-22T08:53:04.008Z,9.7
2019-02-22T08:54:03.749Z,8.6
2019-02-22T08:55:03.872Z,9.7
2019-02-22T08:56:03.553Z,11.2
2019-02-22T08:57:03.828Z,9.7
2019-02-22T08:58:03.445Z,11.2
2019-02-22T08:59:03.117Z,8.6
2019-02-22T09:00:03.883Z,7.2
2019-02-22T09:01:03.085Z,9.7
2019-02-22T09:02:03.663Z,9.7
2019-02-22T09:03:03.180Z,9.7
2019-02-22T09:04:03.479Z,9.7
2019-02-22T09:05:03.056Z,9.7
2019-02-22T09:06:03.239Z,9.7
2019-02-22T09:07:03.735Z,9.7
2019-02-22T09:08:03.101Z,9.7
2019-02-22T09:09:03.441Z,9.7
2019-02-22T09:10:03.665Z,8.6
2019-02-22T09:11:03.357Z,11.2
2019-02-22T09:12:03.778Z,9.7
2019-02-22T09:13:03.131Z,8.6
2019-02-22T09:14:03.643Z,9.7
2019-02-22T09:15:03.395Z,8.6
2019-02-22T09:16:03.787Z,8.6
2019-02-22T09:17:03.310Z,8.6
2019-02-22T09:18:03.289Z,9.7
2019-02-22T09:19:03.703Z,8.6
2019-02-22T09:20:03.134Z,9.7
2019-02-22T09:21:03.291Z,11.2
2019-02-22T09:22:03.755Z,8.6
2019-02-22T09:23:03.164Z,9.7
2019-02-22T09:24:03.880Z,9.7
2019-02-22T09:25:03.803Z,9.7
2019-02-22T09:26:03.783Z,7.2
2019-02-22T09:27:03.568Z,7.2
2019-02-22T09:28:03.635Z,8.6
2019-02-22T09:29:03.516Z,9.7
2019-02-22T09:30:02.985Z,8.6
2019-02-22T09:31:03.334Z,8.6
2019-02-22T09:32:03.903Z,12.2
2019-02-22T09:33:03.347Z,9.7
2019-02-22T09:34:03.455Z,8.6
2019-02-22T09:35:03.207Z,9.7
2019-02-22T09:36:03.649Z,11.2
2019-02-22T09:37:03.769Z,11.2
2019-02-22T09:38:03.778Z,6.1
2019-02-22T09:39:02.954Z,11.2
2019-02-22T09:40:03.369Z,11.2
2019-02-22T09:41:03.260Z,13.3
2019-02-22T09:42:03.506Z,13.3
2019-02-22T09:43:03.420Z,13.3
2019-02-22T09:44:03.545Z,13.3
2019-02-22T09:45:03.333Z,11.2
2019-02-22T09:46:03.585Z,9.7
2019-02-22T09:47:02.830Z,7.2
2019-02-22T09:48:03.243Z,11.2
2019-02-22T09:49:02.971Z,13.3
2019-02-22T09:50:03.890Z,9.7
2019-02-22T09:51:03.902Z,7.2
2019-02-22T09:52:02.985Z,9.7
2019-02-22T09:53:03.692Z,8.6
2019-02-22T09:54:03.158Z,8.6
2019-02-22T09:55:03.946Z,7.2
2019-02-22T09:56:03.335Z,9.7
2019-02-22T09:57:02.901Z,6.1
2019-02-22T09:58:03.561Z,8.6
2019-02-22T09:59:03.312Z,8.6
2019-02-22T10:00:03.690Z,6.1
2019-02-22T10:01:02.992Z,7.2
2019-02-22T10:02:03.532Z,8.6
2019-02-22T10:03:03.464Z,9.7
2019-02-22T10:04:03.457Z,8.6
2019-02-22T10:05:03.353Z,8.6
2019-02-22T10:06:03.274Z,9.7
2019-02-22T10:07:03.818Z,9.7
2019-02-22T10:08:03.255Z,11.2
2019-02-22T10:09:04.378Z,11.2
2019-02-22T10:10:03.419Z,11.2
2019-02-22T10:11:03.508Z,11.2
2019-02-22T10:12:03.359Z,8.6
2019-02-22T10:13:03.575Z,8.6
2019-02-22T10:14:07.440Z,8.6
2019-02-22T10:15:03.693Z,8.6
2019-02-22T10:16:03.273Z,9.7
2019-02-22T10:17:04.434Z,11.2
2019-02-22T10:18:02.681Z,11.2
2019-02-22T10:19:03.350Z,9.7
2019-02-22T10:20:03.959Z,9.7
2019-02-22T10:21:03.688Z,8.6
2019-02-22T10:22:03.724Z,7.2
2019-02-22T10:23:03.301Z,11.2
2019-02-22T10:24:03.542Z,8.6
2019-02-22T10:25:03.217Z,9.7
2019-02-22T10:26:03.436Z,9.7
2019-02-22T10:27:03.931Z,7.2
2019-02-22T10:28:03.532Z,9.7
2019-02-22T10:29:03.905Z,8.6
2019-02-22T10:30:03.422Z,9.7
2019-02-22T10:31:02.971Z,9.7
2019-02-22T10:32:03.227Z,11.2
2019-02-22T10:33:03.718Z,11.2
2019-02-22T10:34:03.118Z,11.2
2019-02-22T10:35:03.649Z,12.2
2019-02-22T10:36:03.614Z,12.2
2019-02-22T10:37:03.211Z,8.6
2019-02-22T10:38:03.939Z,9.7
2019-02-22T10:39:03.347Z,9.7
2019-02-22T10:40:03.400Z,8.6
2019-02-22T10:41:03.407Z,8.6
2019-02-22T10:42:03.617Z,8.6
2019-02-22T10:43:03.241Z,7.2
2019-02-22T10:44:03.722Z,9.7
2019-02-22T10:45:02.905Z,9.7
2019-02-22T10:46:03.680Z,8.6
2019-02-22T10:47:03.122Z,7.2
2019-02-22T10:48:03.744Z,7.2
2019-02-22T10:49:03.442Z,11.2
2019-02-22T10:50:02.905Z,11.2
2019-02-22T10:51:03.137Z,9.7
2019-02-22T10:52:03.052Z,8.6
2019-02-22T10:53:03.557Z,7.2
2019-02-22T10:54:02.903Z,8.6
2019-02-22T10:55:03.925Z,7.2
2019-02-22T10:56:03.507Z,9.7
2019-02-22T10:57:03.399Z,8.6
2019-02-22T10:58:03.703Z,11.2
2019-02-22T10:59:03.281Z,8.6
2019-02-22T11:00:03.947Z,5
2019-02-22T11:01:03.325Z,5
2019-02-22T11:02:03.503Z,5
2019-02-22T11:03:03.041Z,5
2019-02-22T11:04:03.385Z,5
2019-02-22T11:05:04.130Z,5
2019-02-22T11:06:03.461Z,5
2019-02-22T11:07:03.846Z,5
2019-02-22T11:08:03.307Z,9.7
2019-02-22T11:09:04.027Z,9.7
2019-02-22T11:10:03.319Z,11.2
2019-02-22T11:11:03.873Z,12.2
2019-02-22T11:12:03.563Z,11.2
2019-02-22T11:13:03.188Z,12.2
2019-02-22T11:14:03.576Z,11.2
2019-02-22T11:15:03.370Z,12.2
2019-02-22T11:16:05.858Z,9.7
2019-02-22T11:17:03.486Z,8.6
2019-02-22T11:18:03.919Z,9.7
2019-02-22T11:19:03.050Z,7.2
2019-02-22T11:20:04.067Z,9.7
2019-02-22T11:21:02.867Z,11.2
2019-02-22T11:22:03.613Z,12.2
2019-02-22T11:23:03.997Z,9.7
2019-02-22T11:24:03.254Z,9.7
2019-02-22T11:25:03.755Z,11.2
2019-02-22T11:26:03.179Z,8.6
2019-02-22T11:27:03.706Z,13.3
2019-02-22T11:28:03.386Z,11.2
2019-02-22T11:29:03.774Z,12.2
2019-02-22T11:30:03.282Z,9.7
2019-02-22T11:31:03.457Z,9.7
2019-02-22T11:32:03.164Z,8.6
2019-02-22T11:33:02.912Z,7.2
2019-02-22T11:34:03.263Z,8.6
2019-02-22T11:35:03.908Z,8.6
2019-02-22T11:36:04.000Z,9.7
2019-02-22T11:37:03.519Z,13.3
2019-02-22T11:38:03.661Z,11.2
2019-02-22T11:39:03.724Z,11.2
2019-02-22T11:40:03.561Z,8.6
2019-02-22T11:41:03.065Z,11.2
2019-02-22T11:42:03.620Z,11.2
2019-02-22T11:43:03.257Z,9.7
2019-02-22T11:44:03.519Z,9.7
2019-02-22T11:45:03.147Z,6.1
2019-02-22T11:46:03.836Z,7.2
2019-02-22T11:47:03.155Z,7.2
2019-02-22T11:48:09.927Z,9.7
2019-02-22T11:49:03.164Z,9.7
2019-02-22T11:50:03.042Z,8.6
2019-02-22T11:51:03.514Z,9.7
2019-02-22T11:52:03.944Z,7.2
2019-02-22T11:53:03.607Z,8.6
2019-02-22T11:54:03.744Z,9.7
2019-02-22T11:55:03.388Z,9.7
2019-02-22T11:56:03.760Z,8.6
2019-02-22T11:57:03.341Z,8.6
2019-02-22T11:58:02.950Z,8.6
2019-02-22T11:59:03.526Z,8.6
2019-02-22T12:00:03.700Z,8.6
2019-02-22T12:01:03.109Z,6.1
2019-02-22T12:02:03.990Z,7.2
2019-02-22T12:03:25.531Z,7.2
2019-02-22T12:04:03.546Z,6.1
2019-02-22T12:05:04.065Z,3.6
2019-02-22T12:06:03.756Z,7.2
2019-02-22T12:07:03.150Z,7.2
2019-02-22T12:08:03.966Z,7.2
2019-02-22T12:09:03.351Z,6.1
2019-02-22T12:10:03.452Z,6.1
2019-02-22T12:11:03.805Z,8.6
2019-02-22T12:12:03.697Z,7.2
2019-02-22T12:13:03.221Z,6.1
2019-02-22T12:14:03.748Z,6.1
2019-02-22T12:15:02.999Z,7.2
2019-02-22T12:16:03.692Z,5
2019-02-22T12:17:03.159Z,6.1
2019-02-22T12:18:03.530Z,6.1
2019-02-22T12:19:02.731Z,6.1
2019-02-22T12:20:03.394Z,6.1
2019-02-22T12:21:02.916Z,9.7
2019-02-22T12:22:03.348Z,5
2019-02-22T12:23:03.212Z,6.1
2019-02-22T12:24:03.229Z,5
2019-02-22T12:25:03.672Z,3.6
2019-02-22T12:26:03.583Z,6.1
2019-02-22T12:27:03.209Z,3.6
2019-02-22T12:28:03.906Z,3.6
2019-02-22T12:29:03.743Z,3.6
2019-02-22T12:30:03.234Z,1.1
2019-02-22T12:31:03.848Z,0
2019-02-22T12:32:03.391Z,0
2019-02-22T12:33:03.751Z,1.1
2019-02-22T12:34:02.914Z,2.5
2019-02-22T12:35:03.922Z,2.5
2019-02-22T12:36:03.462Z,1.1
2019-02-22T12:37:03.711Z,0
2019-02-22T12:38:03.022Z,1.1
2019-02-22T12:39:03.375Z,5
2019-02-22T12:40:03.959Z,5
2019-02-22T12:41:03.279Z,7.2
2019-02-22T12:42:03.767Z,7.2
2019-02-22T12:43:03.057Z,6.1
2019-02-22T12:44:03.856Z,6.1
2019-02-22T12:45:03.977Z,5
2019-02-22T12:46:03.544Z,5
2019-02-22T12:47:03.872Z,7.2
2019-02-22T12:48:03.467Z,7.2
2019-02-22T12:49:03.887Z,6.1
2019-02-22T12:50:03.392Z,7.2
2019-02-22T12:51:03.949Z,7.2
2019-02-22T12:52:02.881Z,7.2
2019-02-22T12:53:03.697Z,8.6
2019-02-22T12:54:03.852Z,6.1
2019-02-22T12:55:03.603Z,7.2
2019-02-22T12:56:03.799Z,6.1
2019-02-22T12:57:03.109Z,8.6
2019-02-22T12:58:03.955Z,8.6
2019-02-22T12:59:03.951Z,9.7
2019-02-22T13:00:03.513Z,8.6
2019-02-22T13:01:03.597Z,6.1
2019-02-22T13:02:03.278Z,6.1
2019-02-22T13:03:03.343Z,6.1
2019-02-22T13:04:03.537Z,6.1
2019-02-22T13:05:03.410Z,6.1
2019-02-22T13:06:03.866Z,6.1
2019-02-22T13:07:03.174Z,6.1
2019-02-22T13:08:03.421Z,6.1
2019-02-22T13:09:03.216Z,3.6
2019-02-22T13:10:03.504Z,6.1
2019-02-22T13:11:03.096Z,6.1
2019-02-22T13:12:17.694Z,6.1
2019-02-22T13:13:03.235Z,7.2
2019-02-22T13:14:03.778Z,6.1
2019-02-22T13:15:15.065Z,2.5
2019-02-22T13:16:03.547Z,1.1
2019-02-22T13:17:03.108Z,2.5
2019-02-22T13:18:03.616Z,3.6
2019-02-22T13:19:02.950Z,5
2019-02-22T13:20:03.132Z,9.7
2019-02-22T13:21:03.808Z,2.5
2019-02-22T13:22:02.927Z,6.1
2019-02-22T13:23:03.904Z,6.1
2019-02-22T13:24:03.269Z,1.1
2019-02-22T13:25:03.755Z,5
2019-02-22T13:26:03.117Z,5
2019-02-22T13:27:03.478Z,3.6
2019-02-22T13:28:03.152Z,5
2019-02-22T13:29:05.403Z,3.6
2019-02-22T13:30:03.560Z,2.5
2019-02-22T13:31:03.225Z,1.1
2019-02-22T13:32:03.568Z,1.1
2019-02-22T13:33:03.474Z,3.6
2019-02-22T13:34:03.043Z,1.1
2019-02-22T13:35:03.335Z,6.1
2019-02-22T13:36:03.704Z,6.1
2019-02-22T13:37:02.921Z,5
2019-02-22T13:38:03.463Z,7.2
2019-02-22T13:39:03.273Z,3.6
2019-02-22T13:40:03.479Z,0
2019-02-22T13:41:03.354Z,2.5
2019-02-22T13:42:03.400Z,3.6
2019-02-22T13:43:05.742Z,2.5